Time;durP1;ratioP1;P1;durP2;ratioP2;P2;SDS_P1;SDS_P2;PMS_P1;PMS_P2;Temp;Humidity;BMP_temperature;BMP_pressure;BME280_temperature;BME280_humidity;BME280_pressure;Samples;Min_cycle;Max_cycle;Signal;HPM_P1;HPM_P2
2022/04/28 00:00:08;;;;;;;12.63;5.00;;;11.70;85.90;;;;;;4953067;29;20451;-68
2022/04/28 00:02:34;;;;;;;8.00;4.77;;;11.70;86.10;;;;;;4952016;29;20027;-69
2022/04/28 00:05:01;;;;;;;9.53;4.97;;;11.60;86.40;;;;;;4953812;28;20082;-68
2022/04/28 00:07:27;;;;;;;8.70;4.80;;;11.60;86.40;;;;;;4956566;29;20395;-68
2022/04/28 00:09:53;;;;;;;8.23;4.20;;;11.60;86.70;;;;;;4956642;29;20038;-69
2022/04/28 00:12:19;;;;;;;11.77;4.60;;;11.60;86.70;;;;;;4956474;29;20039;-68
2022/04/28 00:14:45;;;;;;;11.27;4.97;;;11.60;86.80;;;;;;4956377;29;20031;-69
2022/04/28 00:17:11;;;;;;;8.40;4.33;;;11.50;87.30;;;;;;4956327;29;20114;-68
2022/04/28 00:19:37;;;;;;;12.40;4.90;;;11.50;87.20;;;;;;4956477;29;20500;-68
2022/04/28 00:22:03;;;;;;;14.93;5.13;;;11.60;87.00;;;;;;4956329;29;20038;-68
2022/04/28 00:24:29;;;;;;;9.83;4.80;;;11.60;87.00;;;;;;4956469;29;20031;-68
2022/04/28 00:26:55;;;;;;;9.07;4.77;;;11.50;87.20;;;;;;4955919;29;20083;-68
2022/04/28 00:29:21;;;;;;;10.73;5.30;;;11.50;87.60;;;;;;4955071;29;20039;-69
2022/04/28 00:31:48;;;;;;;10.33;5.50;;;11.50;87.50;;;;;;4956202;29;20031;-69
2022/04/28 00:34:14;;;;;;;10.83;5.17;;;11.40;87.50;;;;;;4956095;29;20086;-69
2022/04/28 00:36:41;;;;;;;12.83;5.67;;;11.40;87.70;;;;;;4954820;29;20023;-69
2022/04/28 00:39:07;;;;;;;9.90;5.47;;;11.30;88.10;;;;;;4956013;29;20027;-69
2022/04/28 00:41:33;;;;;;;8.17;5.00;;;11.30;88.40;;;;;;4955834;29;20026;-69
2022/04/28 00:44:00;;;;;;;10.63;5.53;;;11.30;89.20;;;;;;4954684;29;20031;-69
2022/04/28 00:46:26;;;;;;;10.20;5.37;;;11.20;88.80;;;;;;4954580;29;20031;-70
2022/04/28 00:51:37;;;;;;;14.17;6.30;;;11.20;88.60;;;;;;4955035;29;20105;-70
2022/04/28 00:54:05;;;;;;;10.23;5.53;;;11.10;88.60;;;;;;4954448;29;20457;-70
2022/04/28 00:56:31;;;;;;;14.10;5.90;;;11.20;88.70;;;;;;4954461;29;20024;-69
2022/04/28 00:59:02;;;;;;;11.03;5.80;;;11.10;89.00;;;;;;4955757;29;20031;-69
2022/04/28 01:01:32;;;;;;;10.20;5.43;;;11.10;89.20;;;;;;4954547;29;20027;-69
2022/04/28 01:03:59;;;;;;;15.37;6.60;;;11.10;89.50;;;;;;4954665;29;20125;-69
2022/04/28 01:06:25;;;;;;;12.43;6.10;;;11.10;89.10;;;;;;4954449;29;20027;-70
2022/04/28 01:08:52;;;;;;;12.80;5.87;;;11.10;89.10;;;;;;4954329;29;20043;-69
2022/04/28 01:11:19;;;;;;;16.17;6.53;;;11.10;89.30;;;;;;4954481;29;20042;-69
2022/04/28 01:13:52;;;;;;;14.77;6.57;;;11.10;89.40;;;;;;4954443;29;20031;-69
2022/04/28 01:16:28;;;;;;;13.20;6.40;;;11.10;89.80;;;;;;4953864;28;20102;-69
2022/04/28 01:18:54;;;;;;;13.00;6.13;;;11.00;90.00;;;;;;4954207;29;20499;-70
2022/04/28 01:21:20;;;;;;;16.30;6.67;;;11.10;90.00;;;;;;4954037;29;20027;-69
2022/04/28 01:23:47;;;;;;;11.80;6.20;;;11.00;89.80;;;;;;4953939;29;20496;-70
2022/04/28 01:26:16;;;;;;;10.93;6.18;;;11.00;90.10;;;;;;4953864;29;20065;-69
2022/04/28 01:28:42;;;;;;;11.47;6.27;;;11.00;90.10;;;;;;4953782;29;20039;-68
2022/04/28 01:31:08;;;;;;;14.30;6.67;;;11.00;90.10;;;;;;4953657;29;20039;-69
2022/04/28 01:33:46;;;;;;;13.33;6.93;;;11.00;90.20;;;;;;4953423;29;20493;-69
2022/04/28 01:36:15;;;;;;;;;;;10.90;90.20;;;;;;4953762;29;20032;-68
2022/04/28 01:38:42;;;;;;;12.40;6.70;;;10.80;90.40;;;;;;4953478;29;19950;-69
2022/04/28 01:41:08;;;;;;;12.60;7.03;;;10.80;90.40;;;;;;4953901;29;20027;-69
2022/04/28 01:43:34;;;;;;;12.43;6.70;;;10.70;90.50;;;;;;4954928;29;20082;-68
2022/04/28 01:46:01;;;;;;;12.30;6.10;;;10.70;90.50;;;;;;4953647;29;20051;-70
2022/04/28 01:48:56;;;;;;;12.70;6.67;;;10.70;90.70;;;;;;4946781;29;20046;-70
2022/04/28 01:55:05;;;;;;;12.30;7.07;;;10.70;90.80;;;;;;4922418;28;20071;-68
2022/04/28 01:57:40;;;;;;;15.23;7.27;;;10.70;90.80;;;;;;4954887;29;20103;-68
2022/04/28 02:00:29;;;;;;;14.57;6.77;;;10.70;90.80;;;;;;4953693;29;20038;-68
2022/04/28 02:03:03;;;;;;;12.03;7.10;;;10.70;90.80;;;;;;4953389;29;20074;-68
2022/04/28 02:05:29;;;;;;;14.47;7.07;;;10.70;90.80;;;;;;4954732;29;20373;-68
2022/04/28 02:07:56;;;;;;;13.70;7.40;;;10.70;90.80;;;;;;4954117;29;20031;-68
2022/04/28 02:10:22;;;;;;;14.13;7.60;;;10.70;90.90;;;;;;4954549;29;20031;-69
2022/04/28 02:12:48;;;;;;;13.90;7.37;;;10.70;90.90;;;;;;4953168;29;20429;-68
2022/04/28 02:15:39;;;;;;;13.10;7.00;;;10.60;91.00;;;;;;4954206;29;20074;-71
2022/04/28 02:18:05;;;;;;;18.33;7.60;;;10.60;91.00;;;;;;4953920;29;20070;-68
2022/04/28 02:20:32;;;;;;;13.93;7.23;;;10.60;91.10;;;;;;4953143;29;20027;-69
2022/04/28 02:22:58;;;;;;;16.47;7.70;;;10.50;91.20;;;;;;4954311;29;20389;-71
2022/04/28 02:25:25;;;;;;;12.10;7.47;;;10.60;91.20;;;;;;4952880;29;20028;-68
2022/04/28 02:27:52;;;;;;;17.10;7.90;;;10.60;91.20;;;;;;4952382;28;20023;-68
2022/04/28 02:30:20;;;;;;;10.93;6.97;;;10.50;91.30;;;;;;4952334;29;20031;-68
2022/04/28 02:35:41;;;;;;;13.97;7.20;;;10.50;91.20;;;;;;4952823;29;20089;-68
2022/04/28 02:38:07;;;;;;;13.50;7.70;;;10.60;91.30;;;;;;4952649;29;20031;-69
2022/04/28 02:40:33;;;;;;;17.30;8.33;;;10.50;91.30;;;;;;4952712;29;20034;-68
2022/04/28 02:43:02;;;;;;;14.68;8.20;;;10.50;91.40;;;;;;4952575;29;20038;-69
2022/04/28 02:45:30;;;;;;;14.17;7.90;;;10.50;91.50;;;;;;4952721;29;20070;-69
2022/04/28 02:47:57;;;;;;;13.80;7.27;;;10.50;91.50;;;;;;4953818;29;20099;-69
2022/04/28 02:50:23;;;;;;;15.77;7.90;;;10.50;91.60;;;;;;4952693;29;20424;-69
2022/04/28 02:52:50;;;;;;;14.70;8.33;;;10.40;91.70;;;;;;4953577;29;20365;-69
2022/04/28 02:55:16;;;;;;;15.70;8.00;;;10.40;91.80;;;;;;4953842;29;20543;-69
2022/04/28 02:57:42;;;;;;;16.27;8.27;;;10.40;91.80;;;;;;4952480;29;20027;-69
2022/04/28 03:00:10;;;;;;;16.17;8.33;;;10.30;91.90;;;;;;4952452;29;20027;-69
2022/04/28 03:02:49;;;;;;;15.35;8.00;;;10.30;92.00;;;;;;4952504;29;20027;-69
2022/04/28 03:05:15;;;;;;;16.97;8.67;;;10.10;92.20;;;;;;4953625;29;20511;-69
2022/04/28 03:11:13;;;;;;;14.57;7.90;;;10.20;92.20;;;;;;4952675;29;20035;-69
2022/04/28 03:13:23;;;;;;;15.17;8.40;;;10.20;92.20;;;;;;4945887;29;20533;-69
2022/04/28 03:15:53;;;;;;;15.00;8.63;;;10.20;92.20;;;;;;4952277;29;20029;-69
2022/04/28 03:18:32;;;;;;;17.73;9.05;;;10.10;92.20;;;;;;4952113;29;20130;-68
2022/04/28 03:20:58;;;;;;;14.47;8.63;;;10.20;92.30;;;;;;4953484;29;20087;-69
2022/04/28 03:23:24;;;;;;;12.83;7.97;;;10.10;92.40;;;;;;4952355;29;20035;-69
2022/04/28 03:25:51;;;;;;;14.37;8.53;;;10.10;92.50;;;;;;4953489;29;20037;-68
2022/04/28 03:28:19;;;;;;;15.80;8.10;;;10.00;92.60;;;;;;4951705;29;20034;-68
2022/04/28 03:30:46;;;;;;;15.17;9.17;;;10.00;92.70;;;;;;4952105;29;20480;-69
2022/04/28 03:33:18;;;;;;;14.47;8.77;;;10.10;92.70;;;;;;4952079;29;20067;-68
2022/04/28 03:35:44;;;;;;;14.23;8.53;;;10.10;92.70;;;;;;4953276;29;20049;-69
2022/04/28 03:38:14;;;;;;;18.00;8.83;;;10.10;92.60;;;;;;4952138;29;20122;-68
2022/04/28 03:40:43;;;;;;;15.60;8.73;;;10.10;92.60;;;;;;4954008;28;20027;-69
2022/04/28 03:43:09;;;;;;;14.73;8.53;;;10.10;92.60;;;;;;4955671;29;20373;-69
2022/04/28 03:45:36;;;;;;;16.60;9.40;;;10.00;92.70;;;;;;4955883;29;20095;-68
2022/04/28 03:48:10;;;;;;;17.60;8.47;;;10.00;92.80;;;;;;4955532;29;20115;-68
2022/04/28 03:50:39;;;;;;;16.03;8.70;;;10.00;92.90;;;;;;4955732;29;20107;-68
2022/04/28 03:53:07;;;;;;;14.83;8.40;;;10.00;92.70;;;;;;4955196;29;20074;-69
2022/04/28 03:55:34;;;;;;;16.00;8.80;;;9.90;92.80;;;;;;4955929;29;20479;-68
2022/04/28 03:58:00;;;;;;;19.07;9.70;;;9.90;93.00;;;;;;4956808;29;20070;-68
2022/04/28 04:00:27;;;;;;;15.87;9.20;;;9.90;93.10;;;;;;4955742;29;20079;-68
2022/04/28 04:03:02;;;;;;;14.07;8.43;;;9.90;93.20;;;;;;4955429;29;20141;-68
2022/04/28 04:05:30;;;;;;;18.10;9.37;;;9.80;93.30;;;;;;4955528;29;20027;-68
2022/04/28 04:07:57;;;;;;;17.13;9.40;;;9.90;93.30;;;;;;4955333;29;20090;-68
2022/04/28 04:10:32;;;;;;;15.80;8.47;;;9.80;93.30;;;;;;4956924;29;20050;-69
2022/04/28 04:13:00;;;;;;;13.90;9.33;;;9.80;93.30;;;;;;4955130;29;20453;-69
2022/04/28 04:15:38;;;;;;;20.40;9.45;;;9.80;93.30;;;;;;4955465;29;20031;-68
2022/04/28 04:18:13;;;;;;;21.00;9.23;;;9.80;93.40;;;;;;4954919;29;20078;-69
2022/04/28 04:20:44;;;;;;;19.50;8.53;;;9.70;93.40;;;;;;4956740;29;20097;-68
2022/04/28 04:23:10;;;;;;;15.67;9.23;;;9.70;93.40;;;;;;4955124;29;20411;-69
2022/04/28 04:25:36;;;;;;;17.47;9.00;;;9.70;93.60;;;;;;4955015;29;20034;-68
2022/04/28 04:28:08;;;;;;;19.10;9.60;;;9.60;93.70;;;;;;4954773;29;20032;-68
2022/04/28 04:33:31;;;;;;;17.13;9.67;;;9.70;93.80;;;;;;4954724;29;20058;-70
2022/04/28 04:35:57;;;;;;;20.77;9.67;;;9.70;93.70;;;;;;4954827;29;20127;-68
2022/04/28 04:38:23;;;;;;;25.40;13.03;;;9.70;94.10;;;;;;4954792;29;20023;-69
2022/04/28 04:40:49;;;;;;;19.10;9.47;;;9.70;93.70;;;;;;4954774;29;20032;-70
2022/04/28 04:43:16;;;;;;;20.37;10.33;;;9.60;93.80;;;;;;4954539;29;20424;-68
2022/04/28 04:45:43;;;;;;;17.70;10.30;;;9.70;93.80;;;;;;4954638;29;20031;-68
2022/04/28 04:48:18;;;;;;;17.40;9.30;;;9.60;93.90;;;;;;4956158;29;20488;-68
2022/04/28 04:50:50;;;;;;;18.87;9.87;;;9.70;93.90;;;;;;4956046;29;20134;-70
2022/04/28 04:53:24;;;;;;;19.60;10.13;;;9.60;93.90;;;;;;4953608;29;20158;-69
2022/04/28 04:55:50;;;;;;;19.47;10.03;;;9.70;94.10;;;;;;4954637;29;20408;-68
2022/04/28 04:58:16;;;;;;;18.20;9.50;;;9.70;94.00;;;;;;4954394;29;20042;-69
2022/04/28 05:00:42;;;;;;;18.10;10.20;;;9.70;94.00;;;;;;4954580;29;20027;-68
2022/04/28 05:03:28;;;;;;;20.03;10.60;;;9.70;93.80;;;;;;4916442;29;20471;-69
2022/04/28 05:06:09;;;;;;;22.70;10.07;;;9.80;93.90;;;;;;4955658;29;20035;-68
2022/04/28 05:08:38;;;;;;;18.45;10.50;;;9.60;94.00;;;;;;4954329;29;20035;-68
2022/04/28 05:11:06;;;;;;;17.13;9.82;;;9.70;94.00;;;;;;4954094;29;20035;-68
2022/04/28 05:13:33;;;;;;;20.03;10.10;;;9.70;94.00;;;;;;4954020;29;20035;-68
2022/04/28 05:16:03;;;;;;;22.27;10.20;;;9.80;94.00;;;;;;4954232;28;20034;-69
2022/04/28 05:18:58;;;;;;;15.53;9.57;;;9.80;94.20;;;;;;4919737;29;20032;-69
2022/04/28 05:21:27;;;;;;;20.73;9.93;;;9.80;94.00;;;;;;4955200;29;20033;-68
2022/04/28 05:24:11;;;;;;;20.93;10.10;;;9.80;93.90;;;;;;4955466;29;20416;-68
2022/04/28 05:26:58;;;;;;;18.47;9.57;;;9.80;94.00;;;;;;4941293;29;20047;-68
2022/04/28 05:29:42;;;;;;;18.27;9.33;;;9.80;94.00;;;;;;4955351;29;20137;-68
2022/04/28 05:32:27;;;;;;;20.93;10.97;;;9.90;94.10;;;;;;4953638;29;20536;-69
2022/04/28 05:35:13;;;;;;;19.67;10.30;;;9.90;94.10;;;;;;4954070;29;20046;-68
2022/04/28 05:37:41;;;;;;;20.73;10.83;;;9.90;94.10;;;;;;4953547;29;20108;-69
2022/04/28 05:40:12;;;;;;;23.27;10.18;;;9.90;93.90;;;;;;4953850;29;20027;-68
2022/04/28 05:45:43;;;;;;;17.80;10.27;;;9.90;94.00;;;;;;4953767;29;20404;-67
2022/04/28 05:48:16;;;;;;;21.30;10.13;;;9.90;94.00;;;;;;4953172;29;20038;-68
2022/04/28 05:50:47;;;;;;;20.13;9.70;;;9.90;93.90;;;;;;4953336;29;20035;-69
2022/04/28 05:53:16;;;;;;;22.57;10.03;;;9.90;94.00;;;;;;4954335;29;20031;-68
2022/04/28 05:55:46;;;;;;;22.15;10.63;;;9.90;94.00;;;;;;4953176;29;20027;-68
2022/04/28 05:58:12;;;;;;;22.77;10.87;;;10.00;93.90;;;;;;4952735;29;20698;-69
2022/04/28 06:00:44;;;;;;;23.93;10.30;;;10.00;93.80;;;;;;4953040;29;20101;-69
2022/04/28 06:03:10;;;;;;;21.57;10.60;;;10.00;93.80;;;;;;4952811;28;20031;-68
2022/04/28 06:05:45;;;;;;;26.90;11.60;;;10.00;93.90;;;;;;4952896;29;20039;-69
2022/04/28 06:08:12;;;;;;;22.53;11.73;;;10.10;93.90;;;;;;4952611;29;20035;-68
2022/04/28 06:10:38;;;;;;;21.30;11.00;;;10.10;93.80;;;;;;4952512;29;20031;-69
2022/04/28 06:13:05;;;;;;;23.77;10.73;;;10.20;93.80;;;;;;4953723;29;20122;-69
2022/04/28 06:15:49;;;;;;;27.27;12.30;;;10.30;93.90;;;;;;4954060;29;20460;-68
2022/04/28 06:18:35;;;;;;;24.63;11.93;;;10.30;93.90;;;;;;4953632;29;20517;-68
2022/04/28 06:21:21;;;;;;;26.03;11.77;;;10.30;93.70;;;;;;4953456;29;20047;-69
2022/04/28 06:23:47;;;;;;;22.93;11.70;;;10.30;93.80;;;;;;4952407;28;20033;-68
2022/04/28 06:26:14;;;;;;;24.27;12.23;;;10.40;93.70;;;;;;4952400;29;20027;-69
2022/04/28 06:28:40;;;;;;;20.60;10.93;;;10.40;93.70;;;;;;4952285;29;20123;-68
2022/04/28 06:31:07;;;;;;;21.47;11.57;;;10.40;93.60;;;;;;4952292;28;20130;-69
2022/04/28 06:33:56;;;;;;;;;;;10.40;93.50;;;;;;4935097;29;20043;-69
2022/04/28 06:36:31;;;;;;;21.60;11.00;;;10.40;93.60;;;;;;4951908;29;20398;-68
2022/04/28 06:38:59;;;;;;;21.93;10.80;;;10.40;93.50;;;;;;4952305;29;20050;-69
2022/04/28 06:41:25;;;;;;;22.03;11.57;;;10.50;93.60;;;;;;4952054;29;20500;-68
2022/04/28 06:43:56;;;;;;;24.30;11.83;;;10.50;93.40;;;;;;4952207;29;20027;-68
2022/04/28 06:46:40;;;;;;;22.67;11.30;;;10.50;93.50;;;;;;4953438;29;20070;-69
2022/04/28 06:49:12;;;;;;;19.57;10.67;;;10.50;93.60;;;;;;4953493;29;20119;-68
2022/04/28 06:51:56;;;;;;;19.30;10.67;;;10.60;93.60;;;;;;4953662;29;20174;-69
2022/04/28 06:54:51;;;;;;;24.40;12.60;;;10.60;93.50;;;;;;4936038;29;20054;-69
2022/04/28 06:57:22;;;;;;;29.13;11.33;;;10.70;93.40;;;;;;4951715;29;20035;-68
2022/04/28 06:59:49;;;;;;;18.03;10.23;;;10.70;93.20;;;;;;4951783;29;20035;-69
2022/04/28 07:02:20;;;;;;;;;;;10.80;93.30;;;;;;4952354;29;20054;-68
2022/04/28 07:04:48;;;;;;;19.17;10.50;;;10.80;93.10;;;;;;4951667;29;19917;-69
2022/04/28 07:07:19;;;;;;;23.67;10.87;;;10.80;93.30;;;;;;4951762;29;20416;-69
2022/04/28 07:09:48;;;;;;;20.35;10.23;;;10.90;93.10;;;;;;4951700;29;20062;-68
2022/04/28 07:12:14;;;;;;;17.40;10.30;;;11.00;93.10;;;;;;4951540;29;20090;-69
2022/04/28 07:15:07;;;;;;;21.57;10.90;;;11.00;93.00;;;;;;4937014;29;20051;-69
2022/04/28 07:17:48;;;;;;;23.20;10.20;;;11.00;92.80;;;;;;4952755;28;20109;-69
2022/04/28 07:20:14;;;;;;;21.77;10.73;;;11.00;92.80;;;;;;4951605;29;20039;-68
2022/04/28 07:22:40;;;;;;;24.47;10.80;;;11.00;92.90;;;;;;4951599;29;20031;-68
2022/04/28 07:25:07;;;;;;;23.37;10.13;;;11.00;92.80;;;;;;4951549;29;20098;-69
2022/04/28 07:27:33;;;;;;;21.20;11.07;;;11.00;92.80;;;;;;4951483;29;20404;-68
2022/04/28 07:30:14;;;;;;;26.03;11.33;;;11.00;92.80;;;;;;4951596;29;20042;-68
2022/04/28 07:32:41;;;;;;;21.53;12.03;;;11.00;92.80;;;;;;4951270;29;20050;-68
2022/04/28 07:35:17;;;;;;;24.73;11.40;;;11.00;92.90;;;;;;4952878;29;20079;-68
2022/04/28 07:38:07;;;;;;;24.83;10.73;;;11.10;92.90;;;;;;4924780;28;20042;-69
2022/04/28 07:40:53;;;;;;;19.27;10.33;;;11.10;92.80;;;;;;4953071;29;20163;-68
2022/04/28 07:43:22;;;;;;;23.30;9.57;;;11.10;92.70;;;;;;4951269;29;20031;-70
2022/04/28 07:45:49;;;;;;;21.87;10.63;;;11.10;92.80;;;;;;4951635;29;20042;-70
2022/04/28 07:48:17;;;;;;;18.73;10.73;;;11.20;92.80;;;;;;4951120;29;20179;-70
2022/04/28 07:50:43;;;;;;;20.87;10.37;;;11.20;93.00;;;;;;4935409;29;20038;-69
2022/04/28 07:53:36;;;;;;;21.50;10.83;;;11.30;92.70;;;;;;4950214;29;20516;-69
2022/04/28 07:56:12;;;;;;;22.67;10.77;;;11.30;92.50;;;;;;4951259;29;20031;-69
2022/04/28 07:58:40;;;;;;;20.97;9.87;;;11.40;92.50;;;;;;4950995;29;20027;-70
2022/04/28 08:01:24;;;;;;;20.10;9.67;;;11.50;92.40;;;;;;4951266;29;20054;-70
2022/04/28 08:03:51;;;;;;;18.87;9.37;;;11.50;92.60;;;;;;4951281;29;20205;-70
2022/04/28 08:06:17;;;;;;;19.97;10.67;;;11.60;92.70;;;;;;4951233;29;20123;-70
2022/04/28 08:08:43;;;;;;;17.43;10.20;;;11.60;92.00;;;;;;4950949;28;20127;-70
2022/04/28 08:11:09;;;;;;;21.87;10.17;;;11.60;91.90;;;;;;4951360;29;20493;-70
2022/04/28 08:13:36;;;;;;;20.10;10.63;;;11.70;92.00;;;;;;4952165;29;20046;-69
2022/04/28 08:16:24;;;;;;;17.60;9.52;;;11.70;92.20;;;;;;4951140;29;20031;-70
2022/04/28 08:18:50;;;;;;;17.97;9.37;;;11.70;92.30;;;;;;4935295;29;20042;-70
2022/04/28 08:21:22;;;;;;;15.63;8.83;;;11.80;92.10;;;;;;4951159;29;20027;-70
2022/04/28 08:23:49;;;;;;;17.30;9.43;;;11.90;92.00;;;;;;4951111;29;20035;-70
2022/04/28 08:26:16;;;;;;;15.50;8.70;;;11.90;92.00;;;;;;4950962;28;20039;-67
2022/04/28 08:28:45;;;;;;;18.25;10.27;;;12.00;92.00;;;;;;4938513;29;20035;-68
2022/04/28 08:31:11;;;;;;;23.00;11.13;;;12.00;91.90;;;;;;4954571;29;20086;-68
2022/04/28 08:33:37;;;;;;;20.87;10.77;;;12.10;91.70;;;;;;4955966;29;20416;-68
2022/04/28 08:36:03;;;;;;;18.27;10.20;;;12.10;91.80;;;;;;4954448;29;20062;-67
2022/04/28 08:38:31;;;;;;;21.80;10.33;;;12.10;91.70;;;;;;4954085;28;20496;-68
2022/04/28 08:41:03;;;;;;;17.97;9.70;;;12.20;91.80;;;;;;4955695;28;20476;-68
2022/04/28 08:43:48;;;;;;;21.10;9.90;;;12.20;91.70;;;;;;4955731;29;20137;-67
2022/04/28 08:49:32;;;;;;;20.27;10.00;;;12.30;91.40;;;;;;4899112;29;20047;-69
2022/04/28 08:52:18;;;;;;;15.57;8.60;;;12.40;91.20;;;;;;4915063;29;20076;-70
2022/04/28 08:54:47;;;;;;;20.77;9.63;;;12.40;91.50;;;;;;4937423;29;20050;-70
2022/04/28 08:57:14;;;;;;;17.90;9.43;;;12.40;91.10;;;;;;4953734;29;20035;-69
2022/04/28 08:59:41;;;;;;;22.57;11.37;;;12.40;91.10;;;;;;4938096;29;20204;-69
2022/04/28 09:02:12;;;;;;;19.43;10.00;;;12.50;90.90;;;;;;4955219;28;20114;-70
2022/04/28 09:05:00;;;;;;;17.40;10.40;;;12.50;90.90;;;;;;4947812;29;20042;-69
2022/04/28 09:07:56;;;;;;;20.80;9.73;;;12.60;90.50;;;;;;4945862;29;20071;-69
2022/04/28 09:10:41;;;;;;;19.30;9.87;;;12.60;90.40;;;;;;4955083;29;20110;-69
2022/04/28 09:16:25;;;;;;;21.23;10.17;;;12.60;90.60;;;;;;4954995;28;20113;-68
2022/04/28 09:18:55;;;;;;;16.53;10.13;;;12.70;90.60;;;;;;4953676;29;20031;-69
2022/04/28 09:21:22;;;;;;;20.07;9.57;;;12.70;90.30;;;;;;4953502;29;20027;-68
2022/04/28 09:23:53;;;;;;;15.87;9.07;;;12.80;90.10;;;;;;4953520;29;20042;-68
2022/04/28 09:26:24;;;;;;;16.30;10.03;;;12.80;89.90;;;;;;4953466;29;20110;-69
2022/04/28 09:28:53;;;;;;;18.43;10.50;;;12.90;89.70;;;;;;4937433;29;20035;-69
2022/04/28 09:31:23;;;;;;;17.87;10.80;;;12.90;88.90;;;;;;4953551;29;20027;-69
2022/04/28 09:34:13;;;;;;;;;;;12.90;89.10;;;;;;4925114;28;20073;-69
2022/04/28 09:37:22;;;;;;;22.95;11.02;;;12.90;88.50;;;;;;4913721;29;20336;-69
2022/04/28 09:42:41;;;;;;;18.97;10.60;;;13.00;88.90;;;;;;4940487;29;20100;-69
2022/04/28 09:45:14;;;;;;;17.03;10.57;;;13.00;89.40;;;;;;4953100;29;20031;-69
2022/04/28 09:47:46;;;;;;;16.37;9.97;;;13.00;89.00;;;;;;4952908;29;20038;-68
2022/04/28 09:50:16;;;;;;;17.70;9.67;;;13.10;88.30;;;;;;4953277;29;20070;-68
2022/04/28 09:53:08;;;;;;;20.47;11.20;;;13.10;88.80;;;;;;4952794;29;20500;-68
2022/04/28 09:55:54;;;;;;;17.83;10.60;;;13.10;88.50;;;;;;4954120;29;20042;-69
2022/04/28 09:58:38;;;;;;;21.55;10.90;;;13.20;89.00;;;;;;4952707;29;20039;-69
2022/04/28 10:01:05;;;;;;;21.07;12.27;;;13.30;89.20;;;;;;4954106;29;20508;-68
2022/04/28 10:03:35;;;;;;;18.40;11.10;;;13.30;87.60;;;;;;4952740;28;20114;-69
2022/04/28 10:06:03;;;;;;;18.92;10.75;;;13.40;87.40;;;;;;4952503;29;20126;-69
2022/04/28 10:08:51;;;;;;;17.77;10.50;;;13.40;87.70;;;;;;4953415;29;20058;-69
2022/04/28 10:11:23;;;;;;;19.80;10.88;;;13.30;87.50;;;;;;4952915;29;20418;-69
2022/04/28 10:13:52;;;;;;;17.58;11.38;;;13.40;87.00;;;;;;4953880;29;20325;-69
2022/04/28 10:16:23;;;;;;;19.85;11.25;;;13.50;86.30;;;;;;4952575;29;20496;-70
2022/04/28 10:19:09;;;;;;;17.52;12.15;;;13.60;85.60;;;;;;4952280;29;20042;-70
2022/04/28 10:21:40;;;;;;;24.42;11.07;;;13.60;85.70;;;;;;4952717;29;20042;-70
2022/04/28 10:32:57;;;;;;;19.05;10.15;;;13.70;84.80;;;;;;4953443;28;20039;-69
2022/04/28 10:35:37;;;;;;;17.10;10.50;;;13.70;84.90;;;;;;4953410;29;20027;-69
2022/04/28 10:38:30;;;;;;;17.17;10.75;;;13.80;85.00;;;;;;4953125;29;20102;-69
2022/04/28 10:41:05;;;;;;;17.20;10.38;;;13.80;84.20;;;;;;4953313;28;20042;-69
2022/04/28 10:43:34;;;;;;;21.30;11.15;;;13.70;83.60;;;;;;4952149;29;20062;-69
2022/04/28 10:46:24;;;;;;;17.80;10.07;;;13.70;84.10;;;;;;4953327;29;20031;-69
2022/04/28 10:48:55;;;;;;;18.05;10.27;;;13.80;84.60;;;;;;4953236;28;20485;-68
2022/04/28 10:51:30;;;;;;;18.17;10.23;;;14.00;83.60;;;;;;4952687;29;20038;-69
2022/04/28 10:53:56;;;;;;;21.60;10.70;;;14.00;83.50;;;;;;4953104;29;20510;-69
2022/04/28 10:56:27;;;;;;;21.65;11.25;;;14.10;82.00;;;;;;4953056;29;20027;-68
2022/04/28 10:59:00;;;;;;;21.42;10.43;;;14.20;82.00;;;;;;4951774;29;20050;-68
2022/04/28 11:01:28;;;;;;;21.77;10.90;;;14.20;82.30;;;;;;4953119;29;20027;-68
2022/04/28 11:03:55;;;;;;;18.85;10.45;;;14.20;82.70;;;;;;4953090;29;20031;-68
2022/04/28 11:06:28;;;;;;;20.95;10.38;;;14.20;82.00;;;;;;4952880;29;20031;-69
2022/04/28 11:08:56;;;;;;;18.20;10.25;;;14.10;83.00;;;;;;4952925;29;20110;-69
2022/04/28 11:11:28;;;;;;;13.82;9.35;;;14.30;83.10;;;;;;4952924;29;20062;-69
2022/04/28 11:13:58;;;;;;;18.70;9.95;;;14.30;82.40;;;;;;4953000;29;20043;-69
2022/04/28 11:16:26;;;;;;;23.52;10.20;;;14.20;82.30;;;;;;4952777;29;20496;-68
2022/04/28 11:18:54;;;;;;;14.70;9.87;;;14.30;83.80;;;;;;4952667;29;20086;-69
2022/04/28 11:21:21;;;;;;;16.10;9.02;;;14.20;83.20;;;;;;4952713;29;20087;-69
2022/04/28 11:23:49;;;;;;;14.45;9.02;;;14.20;83.60;;;;;;4951569;29;20035;-69
2022/04/28 11:26:28;;;;;;;15.40;9.10;;;14.30;83.40;;;;;;4951606;29;20035;-69
2022/04/28 11:29:10;;;;;;;23.30;10.82;;;14.40;83.50;;;;;;4951614;29;20031;-69
2022/04/28 11:31:47;;;;;;;20.23;10.00;;;14.40;82.60;;;;;;4952776;29;20282;-69
2022/04/28 11:34:13;;;;;;;19.80;10.32;;;14.60;81.70;;;;;;4951467;29;20038;-68
2022/04/28 11:36:41;;;;;;;21.17;9.50;;;14.60;81.90;;;;;;4952559;29;20400;-69
2022/04/28 11:39:08;;;;;;;17.45;10.20;;;14.70;81.20;;;;;;4952735;29;20023;-69
2022/04/28 11:41:40;;;;;;;22.65;10.07;;;14.70;81.00;;;;;;4952741;29;20092;-69
2022/04/28 11:44:13;;;;;;;17.85;10.02;;;14.70;82.10;;;;;;4951449;29;20039;-69
2022/04/28 11:46:41;;;;;;;16.02;9.73;;;14.70;81.30;;;;;;4952555;29;20055;-68
2022/04/28 11:49:08;;;;;;;21.13;9.65;;;14.70;81.50;;;;;;4952615;29;20086;-68
2022/04/28 11:51:35;;;;;;;18.60;10.23;;;14.80;81.60;;;;;;4952622;29;20035;-69
2022/04/28 11:54:03;;;;;;;17.60;9.05;;;14.80;81.00;;;;;;4952582;29;20042;-69
2022/04/28 11:56:33;;;;;;;16.08;8.90;;;14.80;80.80;;;;;;4952450;29;20066;-69
2022/04/28 11:59:04;;;;;;;15.82;8.88;;;14.80;81.00;;;;;;4952584;29;20480;-69
2022/04/28 12:01:33;;;;;;;17.13;9.18;;;14.80;80.70;;;;;;4954363;28;20090;-68
2022/04/28 12:04:00;;;;;;;;;;;14.80;80.40;;;;;;4956769;29;20027;-68
2022/04/28 12:06:28;;;;;;;20.25;9.88;;;14.80;80.80;;;;;;4955974;29;19911;-68
2022/04/28 12:08:57;;;;;;;17.95;9.02;;;14.90;79.70;;;;;;4956085;29;20396;-69
2022/04/28 12:14:27;;;;;;;15.40;8.80;;;15.00;79.70;;;;;;4955962;28;20043;-68
2022/04/28 12:19:51;;;;;;;20.27;10.50;;;15.10;78.80;;;;;;4956166;28;20106;-68
2022/04/28 12:22:28;;;;;;;20.25;8.90;;;15.20;78.40;;;;;;4955840;29;20036;-68
2022/04/28 12:24:54;;;;;;;17.52;8.93;;;15.10;79.10;;;;;;4955930;29;20055;-69
2022/04/28 12:27:20;;;;;;;17.35;9.18;;;15.10;80.20;;;;;;4955762;29;20035;-68
2022/04/28 12:29:52;;;;;;;13.23;7.53;;;15.10;77.50;;;;;;4954425;29;20510;-68
2022/04/28 12:32:20;;;;;;;14.27;7.78;;;15.10;77.80;;;;;;4955621;29;20125;-68
2022/04/28 12:34:55;;;;;;;16.48;9.60;;;15.10;78.40;;;;;;4955377;29;20459;-68
2022/04/28 12:37:26;;;;;;;13.90;7.82;;;15.20;77.70;;;;;;4955450;29;20095;-70
2022/04/28 12:40:03;;;;;;;12.77;7.30;;;15.20;77.70;;;;;;4955597;29;20042;-68
2022/04/28 12:42:47;;;;;;;17.40;8.10;;;15.20;77.50;;;;;;4955394;29;20106;-68
2022/04/28 12:45:13;;;;;;;11.73;7.05;;;15.10;77.20;;;;;;4955549;29;20480;-68
2022/04/28 12:47:42;;;;;;;12.98;7.55;;;15.10;77.60;;;;;;4955081;29;20122;-68
2022/04/28 12:50:28;;;;;;;15.35;8.00;;;15.10;78.00;;;;;;4955466;29;20046;-69
2022/04/28 12:52:54;;;;;;;11.20;7.20;;;15.20;76.90;;;;;;4955096;28;20098;-70
2022/04/28 12:55:22;;;;;;;15.52;9.05;;;15.20;77.20;;;;;;4954012;29;20119;-69
2022/04/28 12:57:49;;;;;;;11.93;7.57;;;15.20;76.60;;;;;;4955173;29;20074;-68
2022/04/28 13:00:18;;;;;;;12.50;6.78;;;15.20;76.50;;;;;;4955267;29;20034;-68
2022/04/28 13:02:51;;;;;;;15.98;8.63;;;15.20;76.80;;;;;;4955152;29;20020;-68
2022/04/28 13:05:19;;;;;;;16.40;8.25;;;15.20;76.80;;;;;;4955034;29;20027;-68
2022/04/28 13:07:46;;;;;;;12.27;7.20;;;15.30;76.50;;;;;;4954820;29;20027;-68
2022/04/28 13:10:13;;;;;;;18.20;8.00;;;15.30;77.30;;;;;;4954995;29;20027;-68
2022/04/28 13:12:39;;;;;;;17.13;7.72;;;15.30;77.70;;;;;;4954042;28;20106;-68
2022/04/28 13:15:06;;;;;;;16.33;8.50;;;15.30;78.00;;;;;;4955001;29;20141;-71
2022/04/28 13:17:32;;;;;;;18.35;9.27;;;15.40;78.80;;;;;;4955100;29;20089;-68
2022/04/28 13:19:58;;;;;;;15.40;8.43;;;15.50;77.40;;;;;;4954775;29;20031;-68
2022/04/28 13:22:25;;;;;;;13.32;8.60;;;15.60;76.80;;;;;;4953447;29;20043;-68
2022/04/28 13:24:51;;;;;;;17.10;9.15;;;15.70;76.20;;;;;;4954983;29;20057;-68
2022/04/28 13:27:17;;;;;;;16.55;8.13;;;15.70;75.30;;;;;;4954684;29;20068;-68
2022/04/28 13:29:44;;;;;;;19.17;8.13;;;15.60;75.40;;;;;;4954660;29;20539;-68
2022/04/28 13:32:10;;;;;;;11.85;6.32;;;15.70;75.80;;;;;;4954546;29;20082;-70
2022/04/28 13:34:36;;;;;;;14.63;7.30;;;15.60;76.90;;;;;;4954817;29;20055;-68
2022/04/28 13:37:03;;;;;;;13.60;7.25;;;15.70;76.30;;;;;;4954526;29;20126;-69